Share

Royal, IA

Webb, Iowa (KIAWEBB1) Elev 1356 ft | 42.95 °N, 95.01 °W | Change Station

Current weather conditions updated 8 minutes ago

Clear
Clear
61.7 °F
Feels Like 61.7 °F
N
9.0
Wind Variable Wind from NNW
Gusts 26.0 mph
Sunrise 6:34 AM
Sunset 8:07 PM
Moon Waning Gibbous

Tomorrow is forecast to be Much Warmer than today. Showers tomorrow night.

Pressure 30.10 in
Visibility 10.0 miles
Clouds Clear
Dew Point 36 °F
Humidity 39%
Rainfall 0.00 in
Snow Depth Not available.
UV 2 out of 16
Pollen 10.30 out of 12
Air Quality Not available.
Flu Activity Sporadic
METAR KCKP 182235Z AUTO 16021KT 10SM CLR 19/01 A3010 RMK AO2 T01850005

More Conditions Fewer Conditions

Pressure 30.10 in
Visibility 10.0 miles
Clouds Clear
Dew Point 36 °F
Humidity 39%
Rainfall 0.00 in
Snow Depth Not available.
UV 2 out of 16
Pollen 10.30 out of 12
Air Quality Not available.
Flu Activity Sporadic
METAR KCKP 182235Z AUTO 16021KT 10SM CLR 19/01 A3010 RMK AO2 T01850005

More Conditions Fewer Conditions

10-Day Weather Forecast

Almanac

Astronomy

Apr. 18, 2014 Rise Set
Actual Time 6:34 AM CDT 8:07 PM CDT
Civil Twilight 6:04 AM CDT 8:36 PM CDT
Nautical Twilight 5:28 AM CDT 9:13 PM CDT
Astronomical Twilight 4:50 AM CDT 9:51 PM CDT
Moon 11:56 PM CDT 8:53 AM CDT
Length of Visible Light 14h 32m
Length of Day
13h 32m
Tomorrow will be 2m 46s longer.
Waning Gibbous, 85% of the Moon is Illuminated
Today
Waning Gibbous
Apr 22
Last Quarter
Apr 29
New
May 6
First Quarter
May 14
Full

Today's Extremes

State Highs State Lows

Community

  • Spring Chickadee
    Spring Chickadee
  • What's for Lunch?
    What's for Lunch?
  • SUNRISE THROUGH THE TREES.
    SUNRISE THROUGH THE TREES.
  • Dog Wood Blossoms
    Dog Wood Blossoms
  • Morning Light
    Morning Light

WunderPhotos

Upload Photos

1,702,536 photos uploaded!

WunderBlogs® & News

Nearby

Snow Depth

Station Depth Elevation
No new snow has been reported.

Coastal Water Temperatures

Place Temperature
No Stations Reporting

Earthquake Activity

City Distance Mag. Time & Date
No recent earthquake activity has been reported nearby.
Minimum magnitude displayed is 2.5.

Nearby Weather Stations

Station Location Temp. Dew Point Humidity Wind Precip. Elev Updated Type
Webb, Iowa, Webb, IA 61.7 °F 36 °F 39% NNW  at  9.0 mph 0.00 in / hr 1356 ft 5:51 PM CDT Normal
Mulberry Grove Family Farm, Milford, IA 62.5 °F 36 °F 37% SE  at  21.0 mph 0.00 in / hr 1453 ft 6:00 PM CDT Rapid Fire
Lost Island Lake, Ruthven, IA 59.8 °F 37 °F 43% SE  at  12.0 mph 0.00 in / hr 1380 ft 5:59 PM CDT Normal
West Sioux Estates 10, Milford, IA 61.6 °F 34 °F 35% SE  at  19.0 mph 0.00 in / hr 1411 ft 5:48 PM CDT Normal
Milford Fire Station, Milford, IA 60.8 °F 35 °F 38% SSE  at  11.0 mph 0.00 in / hr 1443 ft 6:00 PM CDT Rapid Fire

Show More Stations Show Fewer Stations

What do you think?

We're not finished. Please let us know what you like, what you don't like, and what you are still missing.